Time;durP1;ratioP1;P1;durP2;ratioP2;P2;SDS_P1;SDS_P2;PMS_P1;PMS_P2;Temp;Humidity;BMP_temperature;BMP_pressure;BME280_temperature;BME280_humidity;BME280_pressure;Samples;Min_cycle;Max_cycle;Signal;HPM_P1;HPM_P2
2023/05/12 00:01:06;;;;;;;19.40;14.55;;;10.10;99.90;;;;;;5094090;28;20043;-57
2023/05/12 00:03:32;;;;;;;21.85;17.17;;;10.10;99.90;;;;;;5093839;28;20367;-57
2023/05/12 00:06:02;;;;;;;21.08;16.38;;;10.10;99.90;;;;;;5092996;28;20154;-57
2023/05/12 00:08:28;;;;;;;21.13;17.20;;;10.10;99.90;;;;;;5094227;28;20024;-55
2023/05/12 00:10:53;;;;;;;19.85;17.40;;;10.10;99.90;;;;;;5093990;28;20032;-57
2023/05/12 00:13:22;;;;;;;20.05;17.77;;;10.10;99.90;;;;;;5093999;28;20039;-56
2023/05/12 00:15:48;;;;;;;21.17;17.23;;;10.10;99.90;;;;;;5093843;28;20020;-57
2023/05/12 00:18:14;;;;;;;25.10;16.58;;;10.10;99.90;;;;;;5093753;28;20110;-55
2023/05/12 00:20:39;;;;;;;20.73;15.75;;;10.10;99.90;;;;;;5093605;28;20103;-57
2023/05/12 00:23:05;;;;;;;24.95;16.27;;;10.10;99.90;;;;;;5093749;28;20078;-57
2023/05/12 00:25:30;;;;;;;21.88;16.42;;;10.10;99.90;;;;;;5093557;28;20464;-58
2023/05/12 00:27:56;;;;;;;20.58;17.38;;;10.10;99.90;;;;;;5075513;28;20114;-57
2023/05/12 00:30:22;;;;;;;21.60;17.08;;;10.10;99.90;;;;;;5093496;28;20024;-59
2023/05/12 00:32:48;;;;;;;22.15;17.23;;;10.10;99.90;;;;;;5093252;28;20039;-56
2023/05/12 00:35:14;;;;;;;19.15;16.88;;;10.10;99.90;;;;;;5093552;28;20032;-55
2023/05/12 00:37:41;;;;;;;21.08;16.88;;;10.10;99.90;;;;;;5093432;28;20040;-57
2023/05/12 00:40:08;;;;;;;21.40;17.40;;;10.10;99.90;;;;;;5077055;28;20128;-58
2023/05/12 00:42:34;;;;;;;25.13;17.40;;;10.10;99.90;;;;;;5072985;28;20399;-57
2023/05/12 00:45:01;;;;;;;21.73;17.55;;;10.10;99.90;;;;;;5073174;28;20111;-55
2023/05/12 00:47:27;;;;;;;24.08;17.02;;;10.10;99.90;;;;;;5073027;28;20020;-56
2023/05/12 00:49:52;;;;;;;21.27;17.30;;;10.00;99.90;;;;;;5055190;28;20075;-57
2023/05/12 00:52:19;;;;;;;19.60;17.55;;;10.10;99.90;;;;;;5073106;28;20048;-55
2023/05/12 00:54:46;;;;;;;19.60;17.58;;;10.10;99.90;;;;;;5055036;28;20115;-58
2023/05/12 00:57:12;;;;;;;21.17;17.67;;;10.10;99.90;;;;;;5072840;28;20395;-57
2023/05/12 00:59:37;;;;;;;21.38;17.67;;;10.10;99.90;;;;;;5072651;28;20062;-55
2023/05/12 01:02:03;;;;;;;25.35;18.45;;;10.10;99.90;;;;;;5072709;28;20383;-56
2023/05/12 01:04:29;;;;;;;26.80;17.90;;;10.10;99.90;;;;;;5072555;28;20020;-57
2023/05/12 01:07:27;;;;;;;19.98;17.90;;;10.10;99.90;;;;;;5072768;28;20047;-56
2023/05/12 01:09:55;;;;;;;24.25;18.70;;;10.10;99.90;;;;;;5017162;28;20110;-57
2023/05/12 01:12:24;;;;;;;24.08;18.08;;;10.00;99.90;;;;;;5072463;28;20079;-58
2023/05/12 01:14:51;;;;;;;22.85;18.83;;;10.10;99.90;;;;;;5072455;28;20024;-57
2023/05/12 01:17:27;;;;;;;24.38;20.13;;;10.10;99.90;;;;;;5072250;28;20024;-57
2023/05/12 01:20:01;;;;;;;22.88;19.85;;;10.10;99.90;;;;;;5072372;28;20467;-57
2023/05/12 01:22:32;;;;;;;21.65;19.35;;;10.10;99.90;;;;;;5072308;28;20522;-58
2023/05/12 01:25:03;;;;;;;29.27;20.27;;;10.10;99.90;;;;;;5072336;28;20021;-57
2023/05/12 01:27:30;;;;;;;26.65;20.83;;;10.10;99.90;;;;;;5072109;28;20066;-58
2023/05/12 01:29:59;;;;;;;23.13;19.17;;;10.10;99.90;;;;;;5072289;28;20020;-57
2023/05/12 01:32:25;;;;;;;26.35;20.75;;;10.10;99.90;;;;;;5072160;28;20070;-57
2023/05/12 01:34:51;;;;;;;27.58;20.10;;;10.10;99.90;;;;;;5071990;28;20038;-58
2023/05/12 01:37:17;;;;;;;26.48;21.05;;;10.10;99.90;;;;;;5072025;28;20111;-57
2023/05/12 01:39:43;;;;;;;23.45;19.45;;;10.10;99.90;;;;;;5084617;28;20055;-57
2023/05/12 01:42:09;;;;;;;22.63;20.17;;;10.00;99.90;;;;;;5092146;28;20173;-56
2023/05/12 01:44:35;;;;;;;23.40;20.60;;;10.10;99.90;;;;;;5091923;28;20111;-57
2023/05/12 01:47:01;;;;;;;24.23;20.55;;;10.10;99.90;;;;;;5074005;28;20035;-56
2023/05/12 01:49:27;;;;;;;24.00;19.85;;;10.10;99.90;;;;;;5092206;28;20016;-55
2023/05/12 01:51:52;;;;;;;19.33;17.35;;;10.00;99.90;;;;;;5073957;28;20020;-58
2023/05/12 01:54:18;;;;;;;24.35;18.75;;;10.10;99.90;;;;;;5092137;28;20623;-57
2023/05/12 01:56:44;;;;;;;21.15;18.77;;;10.10;99.90;;;;;;5091866;28;20032;-57
2023/05/12 01:59:10;;;;;;;22.55;19.88;;;10.00;99.90;;;;;;5092047;28;20027;-55
2023/05/12 02:01:36;;;;;;;26.23;18.95;;;10.10;99.90;;;;;;5091764;28;20024;-57
2023/05/12 02:04:02;;;;;;;26.23;18.73;;;10.00;99.90;;;;;;5091934;28;20028;-57
2023/05/12 02:06:28;;;;;;;21.65;17.92;;;10.10;99.90;;;;;;5091720;28;20106;-56
2023/05/12 02:08:54;;;;;;;22.23;16.80;;;10.00;99.90;;;;;;5073733;28;20102;-57
2023/05/12 02:11:20;;;;;;;20.75;17.70;;;10.00;99.90;;;;;;5091996;28;20414;-56
2023/05/12 02:13:46;;;;;;;17.90;15.82;;;10.10;99.90;;;;;;5091502;28;20085;-57
2023/05/12 02:16:12;;;;;;;20.38;17.33;;;10.00;99.90;;;;;;5091732;28;20016;-55
2023/05/12 02:18:38;;;;;;;23.25;17.02;;;10.00;99.90;;;;;;5091551;28;20030;-57
2023/05/12 02:21:04;;;;;;;19.50;16.48;;;10.00;99.90;;;;;;5073477;28;20375;-56
2023/05/12 02:23:30;;;;;;;17.92;16.13;;;10.00;99.90;;;;;;5091571;28;20020;-56
2023/05/12 02:25:56;;;;;;;17.83;16.02;;;10.00;99.90;;;;;;5091607;28;20378;-55
2023/05/12 02:28:21;;;;;;;17.70;15.45;;;10.00;99.90;;;;;;5091893;28;20020;-56
2023/05/12 02:30:49;;;;;;;19.80;14.40;;;10.00;99.90;;;;;;5097718;28;20032;-58
2023/05/12 02:33:15;;;;;;;15.57;13.82;;;10.00;99.90;;;;;;5098456;28;20024;-56
2023/05/12 02:35:47;;;;;;;17.58;15.68;;;10.10;99.90;;;;;;5079968;28;20070;-56
2023/05/12 02:38:13;;;;;;;20.25;16.33;;;10.10;99.90;;;;;;5098111;28;20020;-57
2023/05/12 02:40:39;;;;;;;18.48;15.13;;;10.00;99.90;;;;;;5098245;28;20367;-57
2023/05/12 02:43:05;;;;;;;19.40;15.63;;;10.00;99.90;;;;;;5098180;28;20055;-55
2023/05/12 02:45:30;;;;;;;21.35;15.35;;;10.00;99.90;;;;;;5098147;28;20498;-57
2023/05/12 02:47:56;;;;;;;20.52;15.25;;;10.00;99.90;;;;;;5080075;28;20020;-58
2023/05/12 02:50:22;;;;;;;18.58;15.20;;;10.00;99.90;;;;;;5098185;28;20042;-57
2023/05/12 02:52:48;;;;;;;16.40;13.40;;;10.00;99.90;;;;;;5079765;28;20039;-57
2023/05/12 02:55:14;;;;;;;18.05;14.07;;;10.00;99.90;;;;;;5089821;28;20065;-56
2023/05/12 02:57:40;;;;;;;17.33;15.52;;;10.00;99.90;;;;;;5097952;28;20099;-55
2023/05/12 03:00:06;;;;;;;18.52;14.45;;;10.00;99.90;;;;;;5098162;28;20023;-56
2023/05/12 03:02:33;;;;;;;15.20;13.40;;;10.00;99.90;;;;;;5097788;28;20667;-57
2023/05/12 03:04:59;;;;;;;16.23;13.65;;;9.90;99.90;;;;;;5098137;28;20103;-56
2023/05/12 03:07:25;;;;;;;18.67;13.90;;;9.90;99.90;;;;;;5098053;28;20177;-55
2023/05/12 03:09:51;;;;;;;18.05;13.95;;;9.90;99.90;;;;;;5097901;28;20031;-57
2023/05/12 03:12:16;;;;;;;18.70;14.27;;;9.90;99.90;;;;;;5097991;28;20110;-56
2023/05/12 03:14:42;;;;;;;15.85;13.60;;;9.90;99.90;;;;;;5097827;28;20032;-57
2023/05/12 03:17:08;;;;;;;14.48;12.98;;;9.90;99.90;;;;;;5079770;28;20028;-57
2023/05/12 03:19:33;;;;;;;17.60;14.30;;;9.90;99.90;;;;;;5097769;28;20023;-57
2023/05/12 03:22:00;;;;;;;15.90;14.20;;;9.90;99.90;;;;;;5097980;28;20474;-57
2023/05/12 03:24:26;;;;;;;16.58;13.88;;;9.80;99.90;;;;;;5079663;28;20475;-57
2023/05/12 03:26:51;;;;;;;17.92;15.02;;;9.90;99.90;;;;;;5097718;28;20027;-57
2023/05/12 03:29:17;;;;;;;17.52;14.57;;;9.90;99.90;;;;;;5097904;28;20839;-57
2023/05/12 03:31:43;;;;;;;14.88;13.30;;;9.90;99.90;;;;;;5097310;28;20020;-57
2023/05/12 03:34:08;;;;;;;20.08;13.85;;;9.80;99.90;;;;;;5096666;28;20024;-57
2023/05/12 03:36:34;;;;;;;18.00;13.65;;;9.80;99.90;;;;;;5078229;28;20031;-57
2023/05/12 03:39:01;;;;;;;18.15;15.40;;;9.90;99.90;;;;;;5096373;28;20080;-57
2023/05/12 03:41:27;;;;;;;16.52;14.63;;;9.90;99.90;;;;;;5094739;28;20434;-56
2023/05/12 03:43:53;;;;;;;14.52;12.32;;;9.90;99.90;;;;;;5094083;28;20095;-55
2023/05/12 03:46:18;;;;;;;15.43;12.95;;;9.90;99.90;;;;;;5093539;28;20020;-56
2023/05/12 03:48:44;;;;;;;17.38;13.52;;;9.90;99.90;;;;;;5093305;28;20020;-56
2023/05/12 03:51:10;;;;;;;16.88;13.95;;;9.90;99.90;;;;;;5093346;28;20020;-58
2023/05/12 03:53:35;;;;;;;16.27;13.68;;;9.90;99.90;;;;;;5094174;28;20027;-58
2023/05/12 03:56:04;;;;;;;14.43;12.55;;;9.80;99.90;;;;;;5094369;28;20494;-57
2023/05/12 03:58:30;;;;;;;17.38;12.77;;;9.80;99.90;;;;;;5094515;28;20020;-57
2023/05/12 04:00:56;;;;;;;13.15;11.77;;;9.90;99.90;;;;;;5094300;28;21126;-56
2023/05/12 04:03:22;;;;;;;16.63;11.75;;;9.80;99.90;;;;;;5075879;28;20069;-56
2023/05/12 04:05:48;;;;;;;13.57;12.00;;;9.80;99.90;;;;;;5093995;28;20024;-57
2023/05/12 04:08:13;;;;;;;15.73;11.35;;;9.80;99.90;;;;;;5076020;28;20131;-56
2023/05/12 04:10:40;;;;;;;14.05;11.10;;;9.80;99.90;;;;;;5093886;28;20028;-56
2023/05/12 04:13:07;;;;;;;15.52;11.07;;;9.90;99.90;;;;;;5093936;28;20055;-56
2023/05/12 04:15:35;;;;;;;13.50;12.23;;;9.90;99.90;;;;;;5093658;28;20417;-57
2023/05/12 04:18:02;;;;;;;14.07;10.95;;;9.90;99.90;;;;;;5093940;28;20040;-55
2023/05/12 04:20:28;;;;;;;11.30;10.20;;;10.00;99.90;;;;;;5109467;28;20123;-56
2023/05/12 04:22:54;;;;;;;12.50;10.88;;;10.00;99.90;;;;;;5093709;28;20153;-57
2023/05/12 04:25:20;;;;;;;13.07;10.25;;;10.00;99.90;;;;;;5093735;28;20027;-54
2023/05/12 04:27:46;;;;;;;13.98;11.15;;;10.00;99.90;;;;;;5093465;28;20028;-57
2023/05/12 04:30:15;;;;;;;10.60;9.50;;;10.00;99.90;;;;;;5093664;28;20403;-57
2023/05/12 04:32:41;;;;;;;11.60;10.38;;;10.10;99.90;;;;;;5093447;28;20047;-57
2023/05/12 04:35:07;;;;;;;11.70;10.52;;;10.10;99.90;;;;;;5093735;28;20375;-56
2023/05/12 04:37:33;;;;;;;10.75;9.65;;;10.10;99.90;;;;;;5093469;28;20426;-57
2023/05/12 04:39:58;;;;;;;12.25;9.75;;;10.20;99.90;;;;;;5075131;28;20186;-56
2023/05/12 04:42:24;;;;;;;13.32;10.63;;;10.10;99.90;;;;;;5093296;28;20066;-55
2023/05/12 04:44:50;;;;;;;11.05;9.77;;;10.20;99.90;;;;;;5093224;28;20035;-55
2023/05/12 04:47:15;;;;;;;14.65;10.25;;;10.30;99.90;;;;;;5093346;28;20459;-53
2023/05/12 04:49:41;;;;;;;12.65;9.93;;;10.30;99.90;;;;;;5093331;28;20044;-56
2023/05/12 04:52:07;;;;;;;13.75;9.20;;;10.30;99.90;;;;;;5092735;28;20026;-56
2023/05/12 04:54:32;;;;;;;17.73;10.15;;;10.20;99.90;;;;;;5074891;28;20131;-57
2023/05/12 04:56:58;;;;;;;11.77;10.63;;;10.20;99.90;;;;;;5093063;28;20098;-56
2023/05/12 04:59:24;;;;;;;11.85;10.13;;;10.20;99.90;;;;;;5093047;28;20412;-54
2023/05/12 05:01:50;;;;;;;10.85;9.75;;;10.30;99.90;;;;;;5093116;28;20063;-56
2023/05/12 05:04:15;;;;;;;15.18;10.00;;;10.30;99.90;;;;;;5092967;28;20371;-57
2023/05/12 05:06:41;;;;;;;12.65;9.30;;;10.30;99.90;;;;;;5092762;28;20024;-55
2023/05/12 05:09:07;;;;;;;11.32;10.15;;;10.40;99.90;;;;;;5092849;28;20596;-53
2023/05/12 05:11:33;;;;;;;10.75;9.40;;;10.40;99.90;;;;;;5092497;28;20024;-57
2023/05/12 05:13:59;;;;;;;11.02;9.38;;;10.40;99.90;;;;;;5092578;28;20051;-57
2023/05/12 05:16:24;;;;;;;10.43;8.68;;;10.50;99.90;;;;;;5092698;28;20077;-57
2023/05/12 05:18:50;;;;;;;11.25;8.85;;;10.50;99.90;;;;;;5074603;28;20050;-56
2023/05/12 05:21:16;;;;;;;9.40;8.50;;;10.40;99.90;;;;;;5092597;28;20100;-57
2023/05/12 05:23:41;;;;;;;10.73;8.48;;;10.50;99.90;;;;;;5092454;28;20020;-58
2023/05/12 05:26:07;;;;;;;9.75;8.77;;;10.50;99.90;;;;;;5074338;28;20063;-53
2023/05/12 05:28:34;;;;;;;13.20;9.07;;;10.50;99.80;;;;;;5073912;28;20028;-53
2023/05/12 05:30:59;;;;;;;13.10;8.85;;;10.50;99.90;;;;;;5092397;28;20090;-56
2023/05/12 05:33:25;;;;;;;10.45;9.00;;;10.50;99.50;;;;;;5092608;28;20032;-57
2023/05/12 05:35:51;;;;;;;12.20;8.75;;;10.60;99.90;;;;;;5092230;28;20031;-57
2023/05/12 05:38:16;;;;;;;17.67;9.00;;;10.60;99.80;;;;;;5092035;28;20030;-58
2023/05/12 05:40:42;;;;;;;10.27;9.18;;;10.60;99.90;;;;;;5092233;28;20025;-58
2023/05/12 05:43:08;;;;;;;10.73;8.43;;;10.70;98.50;;;;;;5091976;28;20544;-57
2023/05/12 05:45:34;;;;;;;9.75;8.73;;;10.70;98.40;;;;;;5092210;28;20039;-57
2023/05/12 05:48:00;;;;;;;11.80;8.52;;;10.70;97.60;;;;;;5092211;28;20016;-69
2023/05/12 05:50:26;;;;;;;9.55;8.07;;;10.70;98.30;;;;;;5092115;28;20027;-57
2023/05/12 05:52:53;;;;;;;8.93;8.02;;;10.60;98.40;;;;;;5091907;28;20058;-55
2023/05/12 05:55:20;;;;;;;18.98;8.70;;;10.60;99.20;;;;;;5073573;28;20028;-55
2023/05/12 05:57:46;;;;;;;9.18;8.27;;;10.50;97.90;;;;;;5073312;28;20078;-57
2023/05/12 06:00:13;;;;;;;10.48;8.30;;;10.50;99.00;;;;;;5091611;28;20058;-56
2023/05/12 06:02:40;;;;;;;10.27;8.43;;;10.50;99.90;;;;;;5090760;28;20498;-57
2023/05/12 06:05:06;;;;;;;10.48;7.97;;;10.60;99.70;;;;;;5090277;28;20051;-58
2023/05/12 06:07:32;;;;;;;9.80;8.02;;;10.60;99.70;;;;;;5091120;28;20161;-57
2023/05/12 06:09:58;;;;;;;8.07;7.28;;;10.70;99.10;;;;;;5091988;28;20028;-57
2023/05/12 06:12:23;;;;;;;9.18;7.88;;;10.80;99.70;;;;;;5091684;28;20031;-56
2023/05/12 06:14:50;;;;;;;8.95;7.97;;;10.80;99.20;;;;;;5091353;28;20043;-52
2023/05/12 06:17:15;;;;;;;10.80;7.88;;;10.80;98.60;;;;;;5091919;28;20024;-55
2023/05/12 06:19:42;;;;;;;8.75;7.85;;;10.80;98.30;;;;;;5091830;28;20104;-56
2023/05/12 06:22:08;;;;;;;12.02;7.85;;;10.80;99.10;;;;;;5091520;28;20030;-57
2023/05/12 06:24:34;;;;;;;9.23;7.32;;;10.90;98.50;;;;;;5091560;28;20514;-56
2023/05/12 06:27:00;;;;;;;15.43;6.50;;;11.10;98.10;;;;;;5091388;28;20026;-57
2023/05/12 06:29:25;;;;;;;7.68;6.65;;;11.10;97.30;;;;;;5073510;28;20104;-57
2023/05/12 06:31:51;;;;;;;11.65;7.38;;;11.10;97.50;;;;;;5091494;28;20463;-57
2023/05/12 06:34:17;;;;;;;9.57;8.00;;;11.20;97.10;;;;;;5091625;28;20090;-57
2023/05/12 06:36:43;;;;;;;9.52;7.20;;;11.20;96.90;;;;;;5091177;28;20445;-57
2023/05/12 06:39:08;;;;;;;8.73;7.35;;;11.20;96.30;;;;;;5091495;28;20076;-58
2023/05/12 06:41:34;;;;;;;7.50;6.55;;;11.20;96.40;;;;;;5091411;28;20059;-59
2023/05/12 06:44:01;;;;;;;7.38;6.68;;;11.20;96.40;;;;;;5091683;28;20020;-55
2023/05/12 06:46:29;;;;;;;6.65;6.00;;;11.20;97.20;;;;;;5091478;28;20028;-54
2023/05/12 06:48:55;;;;;;;10.02;6.78;;;11.30;96.30;;;;;;5091414;28;20038;-56
2023/05/12 06:51:20;;;;;;;7.88;6.90;;;11.30;95.10;;;;;;5091239;28;20103;-57
2023/05/12 06:53:46;;;;;;;9.85;6.75;;;11.40;94.40;;;;;;5071014;28;20020;-57
2023/05/12 06:56:15;;;;;;;8.52;6.50;;;11.30;93.00;;;;;;5071126;28;20052;-55
2023/05/12 06:58:42;;;;;;;7.57;6.10;;;11.40;95.20;;;;;;5071162;28;20023;-55
2023/05/12 07:01:07;;;;;;;7.35;6.60;;;11.50;91.90;;;;;;5070973;28;20015;-56
2023/05/12 07:03:33;;;;;;;8.00;6.38;;;11.40;92.70;;;;;;5070870;28;20024;-57
2023/05/12 07:05:59;;;;;;;7.43;6.57;;;11.30;92.40;;;;;;5070915;28;20036;-56
2023/05/12 07:08:25;;;;;;;10.38;6.13;;;11.40;93.60;;;;;;5071167;28;20024;-57
2023/05/12 07:10:51;;;;;;;6.20;5.60;;;11.30;93.70;;;;;;5070598;28;20020;-57
2023/05/12 07:13:17;;;;;;;6.55;5.95;;;11.30;92.20;;;;;;5071397;28;20460;-57
2023/05/12 07:15:43;;;;;;;7.20;5.60;;;11.20;93.80;;;;;;5072259;28;20066;-58
2023/05/12 07:18:09;;;;;;;7.70;6.78;;;11.30;93.30;;;;;;5074339;28;20029;-55
2023/05/12 07:20:35;;;;;;;6.07;5.47;;;11.30;94.00;;;;;;5073102;28;20545;-54
2023/05/12 07:23:00;;;;;;;8.40;6.53;;;11.20;94.40;;;;;;5072520;28;20047;-56
2023/05/12 07:25:27;;;;;;;6.68;6.00;;;11.20;95.90;;;;;;5055153;28;20102;-56
2023/05/12 07:27:53;;;;;;;11.15;6.35;;;11.20;95.10;;;;;;5073126;28;20433;-52
2023/05/12 07:30:21;;;;;;;7.15;6.32;;;11.10;96.20;;;;;;5073290;28;20025;-56
2023/05/12 07:32:47;;;;;;;13.02;6.43;;;11.10;96.80;;;;;;5073277;28;20032;-57
2023/05/12 07:35:12;;;;;;;7.40;6.70;;;11.20;97.20;;;;;;5073128;28;20391;-56
2023/05/12 07:37:38;;;;;;;8.30;6.88;;;11.30;95.60;;;;;;5073196;28;20078;-56
2023/05/12 07:40:04;;;;;;;8.02;7.22;;;11.30;95.80;;;;;;5072795;28;20400;-56
2023/05/12 07:42:30;;;;;;;7.63;6.93;;;11.40;95.70;;;;;;5073025;28;20032;-57
2023/05/12 07:44:56;;;;;;;9.13;6.07;;;11.30;94.20;;;;;;5055938;28;20464;-58
2023/05/12 07:47:21;;;;;;;8.25;6.45;;;11.40;94.30;;;;;;5074264;28;20036;-57
2023/05/12 07:49:47;;;;;;;7.22;6.53;;;11.40;93.30;;;;;;5073831;28;20388;-57
2023/05/12 07:52:13;;;;;;;8.57;6.70;;;11.40;94.40;;;;;;5073753;28;20078;-56
2023/05/12 07:54:38;;;;;;;7.28;6.53;;;11.30;94.20;;;;;;5073382;28;20061;-57
2023/05/12 07:57:04;;;;;;;10.32;7.45;;;11.40;95.10;;;;;;5074207;28;20074;-58
2023/05/12 07:59:30;;;;;;;7.88;6.47;;;11.50;96.00;;;;;;5073126;28;20428;-56
2023/05/12 08:01:55;;;;;;;7.00;6.38;;;11.50;93.10;;;;;;5072423;28;20499;-57
2023/05/12 08:04:21;;;;;;;8.23;6.53;;;11.50;93.00;;;;;;5072491;28;20016;-57
2023/05/12 08:06:47;;;;;;;8.35;7.32;;;11.50;92.10;;;;;;5072419;28;20024;-58
2023/05/12 08:09:12;;;;;;;68.28;49.72;;;11.50;92.40;;;;;;5072720;28;20071;-57
2023/05/12 08:11:38;;;;;;;79.50;46.78;;;11.40;92.70;;;;;;5072614;28;20416;-57
2023/05/12 08:14:05;;;;;;;10.68;8.00;;;11.40;95.00;;;;;;5072591;28;20032;-56
2023/05/12 08:16:30;;;;;;;9.75;7.93;;;11.50;94.60;;;;;;5072401;28;20021;-58
2023/05/12 08:18:57;;;;;;;9.20;7.93;;;11.50;94.20;;;;;;5072596;28;20024;-58
2023/05/12 08:21:23;;;;;;;8.02;7.22;;;11.60;93.90;;;;;;5072333;28;20028;-58
2023/05/12 08:23:49;;;;;;;10.55;7.55;;;11.50;93.60;;;;;;5072207;28;20028;-54
2023/05/12 08:26:14;;;;;;;15.25;13.85;;;11.50;92.60;;;;;;5072276;28;20028;-56
2023/05/12 08:28:40;;;;;;;9.73;8.82;;;11.40;94.30;;;;;;5071088;28;20021;-55
2023/05/12 08:31:06;;;;;;;8.43;7.63;;;11.40;95.10;;;;;;5054153;28;20056;-56
2023/05/12 08:33:34;;;;;;;10.95;7.90;;;11.40;96.00;;;;;;5072145;28;20029;-58
2023/05/12 08:36:00;;;;;;;8.27;7.57;;;11.30;94.40;;;;;;5072000;28;20154;-57
2023/05/12 08:38:31;;;;;;;8.18;7.40;;;11.30;94.60;;;;;;5073940;28;20029;-57
2023/05/12 08:41:15;;;;;;;10.45;9.55;;;11.40;95.50;;;;;;5092128;28;20363;-58
2023/05/12 08:43:42;;;;;;;8.60;7.60;;;11.30;93.20;;;;;;5092016;28;20028;-57
2023/05/12 08:46:08;;;;;;;8.85;7.05;;;11.30;95.30;;;;;;5092390;28;20028;-56
2023/05/12 08:48:37;;;;;;;8.05;7.25;;;11.30;94.50;;;;;;5091763;28;20031;-57
2023/05/12 08:51:08;;;;;;;7.32;6.50;;;11.30;94.30;;;;;;5092114;28;20371;-55
2023/05/12 08:53:36;;;;;;;8.98;6.78;;;11.30;95.00;;;;;;5073858;28;20028;-57
2023/05/12 08:56:05;;;;;;;6.93;6.32;;;11.30;96.50;;;;;;5092794;28;20089;-57
2023/05/12 08:58:32;;;;;;;11.10;6.82;;;11.30;94.70;;;;;;5092483;28;20024;-56
2023/05/12 09:01:00;;;;;;;7.22;6.57;;;11.30;94.30;;;;;;5091936;28;20016;-57
2023/05/12 09:03:27;;;;;;;7.18;6.47;;;11.30;95.90;;;;;;5092807;28;20078;-57
2023/05/12 09:05:56;;;;;;;9.32;6.53;;;11.40;96.00;;;;;;5093163;28;20090;-56
2023/05/12 09:08:23;;;;;;;22.67;7.97;;;11.40;95.40;;;;;;5092979;28;20451;-56
2023/05/12 09:10:49;;;;;;;11.13;8.05;;;11.40;95.50;;;;;;5092893;28;20111;-56
2023/05/12 09:13:48;;;;;;;8.40;7.05;;;11.40;95.30;;;;;;5092696;28;20028;-57
2023/05/12 09:16:19;;;;;;;7.43;6.72;;;11.40;96.20;;;;;;5092789;28;20089;-56
2023/05/12 09:18:51;;;;;;;9.80;6.32;;;11.40;96.90;;;;;;5074494;28;20035;-55
2023/05/12 09:21:18;;;;;;;12.20;8.43;;;11.30;95.90;;;;;;5092550;28;20115;-57
2023/05/12 09:23:58;;;;;;;8.60;7.80;;;11.30;96.70;;;;;;5092877;28;20479;-55
2023/05/12 09:26:27;;;;;;;10.00;9.10;;;11.30;97.90;;;;;;5092529;28;20031;-56
2023/05/12 09:29:02;;;;;;;10.65;8.13;;;11.30;97.20;;;;;;5092489;28;20546;-54
2023/05/12 09:31:28;;;;;;;7.38;6.68;;;11.30;97.50;;;;;;5092690;28;20130;-58
2023/05/12 09:33:54;;;;;;;9.10;7.97;;;11.30;98.70;;;;;;5062134;28;20103;-56
2023/05/12 09:36:21;;;;;;;8.38;7.00;;;11.30;98.90;;;;;;5061286;28;20052;-54
2023/05/12 09:39:19;;;;;;;7.07;6.47;;;11.30;97.30;;;;;;5060920;28;20071;-54
2023/05/12 09:41:46;;;;;;;7.00;6.32;;;11.40;98.50;;;;;;5015787;28;20098;-53
2023/05/12 09:44:17;;;;;;;11.00;9.63;;;11.50;99.10;;;;;;5060862;28;20016;-55
2023/05/12 09:46:44;;;;;;;13.18;10.85;;;11.60;96.80;;;;;;5061711;28;20064;-52
2023/05/12 09:49:10;;;;;;;10.45;8.98;;;11.60;96.20;;;;;;5081639;28;20024;-55
2023/05/12 09:51:36;;;;;;;11.50;8.85;;;11.60;97.50;;;;;;5062517;28;20526;-54
2023/05/12 09:54:03;;;;;;;20.25;14.02;;;11.70;95.80;;;;;;5081209;28;20028;-56
2023/05/12 09:56:31;;;;;;;28.15;18.55;;;11.70;95.30;;;;;;5081507;28;20020;-55
2023/05/12 09:58:57;;;;;;;13.35;11.60;;;11.70;95.30;;;;;;5062568;28;20394;-56
2023/05/12 10:01:24;;;;;;;18.30;12.90;;;11.70;96.40;;;;;;5061635;28;20020;-54
2023/05/12 10:03:58;;;;;;;12.77;9.60;;;11.80;97.10;;;;;;5061130;28;20036;-57
2023/05/12 10:06:32;;;;;;;13.80;10.50;;;11.90;95.40;;;;;;5060879;28;20058;-55
2023/05/12 10:09:40;;;;;;;11.25;8.77;;;11.90;93.00;;;;;;5060874;28;20028;-57
2023/05/12 10:12:07;;;;;;;6.25;5.38;;;11.90;93.20;;;;;;5044154;28;20113;-55
2023/05/12 10:14:34;;;;;;;5.97;5.43;;;12.00;94.80;;;;;;5059747;28;20154;-53
2023/05/12 10:17:01;;;;;;;9.15;4.97;;;12.10;94.00;;;;;;5060690;28;20119;-57
2023/05/12 10:19:29;;;;;;;5.78;5.28;;;12.10;91.40;;;;;;5061018;28;20032;-57
2023/05/12 10:21:56;;;;;;;5.25;4.78;;;12.20;87.00;;;;;;5060120;28;20425;-55
2023/05/12 10:24:26;;;;;;;7.38;5.60;;;12.10;89.50;;;;;;5060456;28;20073;-58
2023/05/12 10:26:55;;;;;;;6.60;5.05;;;12.00;92.70;;;;;;5060103;28;20344;-56
2023/05/12 10:29:29;;;;;;;6.63;5.20;;;12.10;89.40;;;;;;5060550;28;20017;-55
2023/05/12 10:31:56;;;;;;;6.63;5.72;;;12.10;92.70;;;;;;5042336;28;20029;-56
2023/05/12 10:34:22;;;;;;;7.65;4.93;;;12.20;90.00;;;;;;5042836;28;20028;-57
2023/05/12 10:36:53;;;;;;;8.77;5.30;;;12.10;90.50;;;;;;5042474;28;20041;-57
2023/05/12 10:39:19;;;;;;;5.85;4.93;;;12.30;91.00;;;;;;5060453;28;22544;-56
2023/05/12 10:41:45;;;;;;;5.03;4.63;;;12.30;92.00;;;;;;5060171;28;20032;-57
2023/05/12 10:44:11;;;;;;;10.10;4.88;;;12.40;90.70;;;;;;5060511;28;20023;-56
2023/05/12 10:46:37;;;;;;;7.40;5.22;;;12.50;90.50;;;;;;5042831;28;20115;-57
2023/05/12 10:49:07;;;;;;;6.60;6.00;;;12.40;86.60;;;;;;5059378;28;20040;-57
2023/05/12 10:51:42;;;;;;;11.10;4.85;;;12.50;90.20;;;;;;5062538;28;20028;-57
2023/05/12 10:54:10;;;;;;;9.23;6.28;;;12.70;82.50;;;;;;5064758;28;20028;-54
2023/05/12 10:56:35;;;;;;;10.75;5.63;;;12.50;86.00;;;;;;5063193;28;20032;-58
2023/05/12 10:59:17;;;;;;;5.63;4.85;;;12.50;90.20;;;;;;5064688;28;20043;-57
2023/05/12 11:01:59;;;;;;;4.28;3.92;;;12.50;90.00;;;;;;5064010;28;20036;-56
2023/05/12 11:04:44;;;;;;;5.35;4.85;;;12.40;90.10;;;;;;5067012;28;20032;-57
2023/05/12 11:07:11;;;;;;;5.63;4.95;;;12.50;91.00;;;;;;5073803;28;20487;-55
2023/05/12 11:09:39;;;;;;;5.20;4.70;;;12.50;88.50;;;;;;5073732;28;20119;-57
2023/05/12 11:12:06;;;;;;;5.55;4.85;;;12.40;88.50;;;;;;5074343;28;20032;-52
2023/05/12 11:14:33;;;;;;;5.20;4.80;;;12.30;92.40;;;;;;5072736;28;20028;-55
2023/05/12 11:16:59;;;;;;;5.20;4.68;;;12.20;91.90;;;;;;5073782;28;20039;-56
2023/05/12 11:19:25;;;;;;;4.95;4.55;;;12.20;90.10;;;;;;5074269;28;20056;-57
2023/05/12 11:21:51;;;;;;;7.60;5.05;;;12.30;90.10;;;;;;5074318;28;20064;-56
2023/05/12 11:24:16;;;;;;;5.05;4.65;;;12.20;86.30;;;;;;5074377;28;20029;-56
2023/05/12 11:26:42;;;;;;;4.70;4.30;;;12.20;91.50;;;;;;5074154;28;20031;-55
2023/05/12 11:29:08;;;;;;;4.38;4.07;;;12.30;88.30;;;;;;5074183;28;20019;-57
2023/05/12 11:31:33;;;;;;;4.63;4.22;;;12.20;88.90;;;;;;5074437;28;20078;-54
2023/05/12 11:34:07;;;;;;;4.90;4.50;;;12.30;91.30;;;;;;5074553;28;20028;-56
2023/05/12 11:36:41;;;;;;;7.28;4.72;;;12.30;84.80;;;;;;5074212;28;20044;-57
2023/05/12 11:39:12;;;;;;;7.82;4.07;;;12.30;90.50;;;;;;5074388;28;20503;-57
2023/05/12 11:41:38;;;;;;;6.28;3.97;;;12.30;86.00;;;;;;5055990;28;20059;-54
2023/05/12 11:44:18;;;;;;;4.88;4.47;;;12.30;89.10;;;;;;5073023;28;20484;-54
2023/05/12 11:47:01;;;;;;;5.53;5.03;;;12.40;90.30;;;;;;5072850;28;20059;-56
2023/05/12 11:49:28;;;;;;;4.65;4.25;;;12.70;91.20;;;;;;5072925;28;20532;-55
2023/05/12 11:52:01;;;;;;;4.82;4.43;;;12.90;82.00;;;;;;5073058;28;20039;-56
2023/05/12 11:54:30;;;;;;;4.00;3.70;;;13.00;84.80;;;;;;5072920;28;20479;-53
2023/05/12 11:56:56;;;;;;;4.63;4.22;;;13.10;77.30;;;;;;5072921;28;20091;-55
2023/05/12 11:59:40;;;;;;;4.35;3.95;;;13.20;62.70;;;;;;5072612;28;20028;-56
2023/05/12 12:02:06;;;;;;;5.07;4.68;;;13.30;57.70;;;;;;5071591;28;20095;-56
2023/05/12 12:04:37;;;;;;;5.90;4.28;;;13.20;61.70;;;;;;5072243;28;20038;-54
2023/05/12 12:07:04;;;;;;;7.88;6.07;;;13.10;61.20;;;;;;5072708;28;20070;-53
2023/05/12 12:09:32;;;;;;;4.32;3.95;;;13.00;71.50;;;;;;5072469;28;20028;-54
2023/05/12 12:11:59;;;;;;;7.22;4.20;;;13.00;60.40;;;;;;5072542;28;20132;-54
2023/05/12 12:14:25;;;;;;;4.40;4.00;;;12.90;71.40;;;;;;5072479;28;20028;-54
2023/05/12 12:16:50;;;;;;;4.90;4.03;;;12.90;76.80;;;;;;5072419;28;20100;-56
2023/05/12 12:19:16;;;;;;;4.75;4.22;;;12.90;64.50;;;;;;5072264;28;20437;-57
2023/05/12 12:21:42;;;;;;;4.57;4.22;;;12.80;68.90;;;;;;5073499;28;20052;-54
2023/05/12 12:24:07;;;;;;;13.88;4.90;;;12.80;69.50;;;;;;5073062;28;20662;-54
2023/05/12 12:26:33;;;;;;;4.43;4.13;;;12.70;78.00;;;;;;5072197;28;20028;-53
2023/05/12 12:28:58;;;;;;;5.05;4.40;;;12.70;70.60;;;;;;5073093;28;20021;-56
2023/05/12 12:31:24;;;;;;;4.50;4.05;;;12.70;74.50;;;;;;5073287;28;20059;-56
2023/05/12 12:33:50;;;;;;;4.95;4.28;;;12.80;78.30;;;;;;5073140;28;20123;-57
2023/05/12 12:36:16;;;;;;;3.92;3.63;;;12.80;64.20;;;;;;5073265;28;20111;-55
2023/05/12 12:38:42;;;;;;;4.07;3.78;;;12.90;68.00;;;;;;5073085;28;20040;-57